createdAt,value
2023-02-07T00:01:23.275Z,72.02
2023-02-07T00:03:50.180Z,71.51
2023-02-07T00:06:37.380Z,72.83
2023-02-07T00:09:08.650Z,73.37
2023-02-07T00:11:37.314Z,74.95
2023-02-07T00:14:04.282Z,76.21
2023-02-07T00:16:31.276Z,77.59
2023-02-07T00:19:00.215Z,76.46
2023-02-07T00:21:27.819Z,76.19
2023-02-07T00:23:55.201Z,75.47
2023-02-07T00:26:24.247Z,77.46
2023-02-07T00:28:53.092Z,77.42
2023-02-07T00:31:26.434Z,76.26
2023-02-07T00:33:56.565Z,75.09
2023-02-07T00:36:25.296Z,76.88
2023-02-07T00:38:55.683Z,76.11
2023-02-07T00:41:22.629Z,77.18
2023-02-07T00:43:49.561Z,77.55
2023-02-07T00:46:17.326Z,77.41
2023-02-07T00:48:44.878Z,76.64
2023-02-07T00:51:13.951Z,77.24
2023-02-07T00:53:41.606Z,76.33
2023-02-07T00:56:08.994Z,75.69
2023-02-07T00:58:36.540Z,76.43
2023-02-07T01:01:04.887Z,76.22
2023-02-07T01:03:33.066Z,76.56
2023-02-07T01:05:59.957Z,76.70
2023-02-07T01:08:27.225Z,76.20
2023-02-07T01:10:54.312Z,76.74
2023-02-07T01:13:21.286Z,76.07
2023-02-07T01:15:49.646Z,75.25
2023-02-07T01:18:17.071Z,76.28
2023-02-07T01:20:44.041Z,77.68
2023-02-07T01:23:12.339Z,77.01
2023-02-07T01:25:40.240Z,76.70
2023-02-07T01:28:07.272Z,77.03
2023-02-07T01:30:34.259Z,77.15
2023-02-07T01:33:01.558Z,75.64
2023-02-07T01:35:29.120Z,76.36
2023-02-07T01:37:58.447Z,76.38
2023-02-07T01:40:27.334Z,76.06
2023-02-07T01:42:54.311Z,76.83
2023-02-07T01:45:30.011Z,75.14
2023-02-07T01:48:01.935Z,76.71
2023-02-07T01:50:29.508Z,75.73
2023-02-07T01:52:58.642Z,75.97
2023-02-07T01:55:31.396Z,75.68
2023-02-07T01:57:59.924Z,75.21
2023-02-07T02:00:27.116Z,75.27
2023-02-07T02:02:54.295Z,74.75
2023-02-07T02:05:22.542Z,74.57
2023-02-07T02:07:49.475Z,74.69
2023-02-07T02:10:20.406Z,74.23
2023-02-07T02:13:18.856Z,74.96
2023-02-07T02:16:04.552Z,75.26
2023-02-07T02:18:49.851Z,75.16
2023-02-07T02:21:41.039Z,75.61
2023-02-07T02:24:37.509Z,75.02
2023-02-07T02:27:07.324Z,74.73
2023-02-07T02:30:13.264Z,76.05
2023-02-07T02:33:05.862Z,77.29
2023-02-07T02:36:06.530Z,77.27
2023-02-07T02:39:05.718Z,75.64
2023-02-07T02:41:42.520Z,75.40
2023-02-07T02:44:22.569Z,76.01
2023-02-07T02:46:51.527Z,76.29
2023-02-07T02:49:19.664Z,76.49
2023-02-07T02:51:51.448Z,75.97
2023-02-07T02:54:28.653Z,74.90
2023-02-07T02:57:15.201Z,75.99
2023-02-07T02:59:50.448Z,76.32
2023-02-07T03:02:42.855Z,76.74
2023-02-07T03:05:46.915Z,76.50
2023-02-07T03:08:31.333Z,76.11
2023-02-07T03:11:19.715Z,76.41
2023-02-07T03:14:08.636Z,76.98
2023-02-07T03:16:49.691Z,77.52
2023-02-07T03:19:25.602Z,77.17
2023-02-07T03:21:59.837Z,77.23
2023-02-07T03:24:33.418Z,76.96
2023-02-07T03:27:04.264Z,76.95
2023-02-07T03:29:32.676Z,77.00
2023-02-07T03:32:02.695Z,76.64
2023-02-07T03:34:36.551Z,75.62
2023-02-07T03:37:12.910Z,75.60
2023-02-07T03:39:39.969Z,76.30
2023-02-07T03:42:16.036Z,77.23
2023-02-07T03:44:45.132Z,75.79
2023-02-07T03:47:12.129Z,75.27
2023-02-07T03:49:39.272Z,75.41
2023-02-07T03:52:06.141Z,76.19
2023-02-07T03:54:33.119Z,76.10
2023-02-07T03:57:00.032Z,75.94
2023-02-07T03:59:27.672Z,76.42
2023-02-07T04:01:54.586Z,76.37
2023-02-07T04:04:21.495Z,76.06
2023-02-07T04:06:48.532Z,76.75
2023-02-07T04:09:15.980Z,76.17
2023-02-07T04:11:42.927Z,75.62
2023-02-07T04:14:09.884Z,75.18
2023-02-07T04:16:36.787Z,75.95
2023-02-07T04:19:03.715Z,75.73
2023-02-07T04:21:30.723Z,75.62
2023-02-07T04:23:57.675Z,75.68
2023-02-07T04:26:24.612Z,75.82
2023-02-07T04:28:51.611Z,76.00
2023-02-07T04:31:18.513Z,76.11
2023-02-07T04:33:45.442Z,75.90
2023-02-07T04:36:12.311Z,75.42
2023-02-07T04:38:39.187Z,75.29
2023-02-07T04:41:06.997Z,75.89
2023-02-07T04:43:36.262Z,75.61
2023-02-07T04:46:05.446Z,75.38
2023-02-07T04:48:33.429Z,74.91
2023-02-07T04:51:00.343Z,74.25
2023-02-07T04:53:27.292Z,75.07
2023-02-07T04:55:54.876Z,74.43
2023-02-07T04:58:22.753Z,74.75
2023-02-07T05:00:49.880Z,75.94
2023-02-07T05:03:16.941Z,75.07
2023-02-07T05:05:45.040Z,75.36
2023-02-07T05:08:13.128Z,74.82
2023-02-07T05:10:40.358Z,75.85
2023-02-07T05:13:07.687Z,74.67
2023-02-07T05:15:34.643Z,74.84
2023-02-07T05:18:01.621Z,74.97
2023-02-07T05:20:28.734Z,75.39
2023-02-07T05:22:55.798Z,74.34
2023-02-07T05:25:22.888Z,75.28
2023-02-07T05:27:50.480Z,74.62
2023-02-07T05:30:17.892Z,74.28
2023-02-07T05:33:03.282Z,74.88
2023-02-07T05:35:35.020Z,75.03
2023-02-07T05:38:02.909Z,74.33
2023-02-07T05:40:30.810Z,73.34
2023-02-07T05:42:57.728Z,73.28
2023-02-07T05:45:24.766Z,73.47
2023-02-07T05:47:51.842Z,72.46
2023-02-07T05:50:19.228Z,72.74
2023-02-07T05:52:46.338Z,72.53
2023-02-07T05:55:13.913Z,72.69
2023-02-07T05:57:41.873Z,72.34
2023-02-07T06:00:13.094Z,70.63
2023-02-07T06:02:41.050Z,70.26
2023-02-07T06:05:11.029Z,70.39
2023-02-07T06:07:38.616Z,69.30
2023-02-07T06:10:07.379Z,66.17
2023-02-07T06:12:34.782Z,66.56
2023-02-07T06:15:01.823Z,67.92
2023-02-07T06:17:28.938Z,67.93
2023-02-07T06:19:55.947Z,68.14
2023-02-07T06:22:23.197Z,67.62
2023-02-07T06:24:50.138Z,68.27
2023-02-07T06:27:18.936Z,68.95
2023-02-07T06:29:45.866Z,68.76
2023-02-07T06:32:12.757Z,69.35
2023-02-07T06:34:39.660Z,68.19
2023-02-07T06:37:07.041Z,67.76
2023-02-07T06:39:34.125Z,69.74
2023-02-07T06:42:01.033Z,69.21
2023-02-07T06:44:27.967Z,69.92
2023-02-07T06:46:54.887Z,68.70
2023-02-07T06:49:21.780Z,68.57
2023-02-07T06:51:48.749Z,65.75
2023-02-07T06:54:15.693Z,65.58
2023-02-07T06:56:42.632Z,60.86
2023-02-07T06:59:09.663Z,62.39
2023-02-07T07:01:36.621Z,60.24
2023-02-07T07:04:03.748Z,62.36
2023-02-07T07:06:30.869Z,59.47
2023-02-07T07:08:57.892Z,56.37
2023-02-07T07:11:24.925Z,53.68
2023-02-07T07:13:51.915Z,51.88
2023-02-07T07:16:18.897Z,50.44
2023-02-07T07:18:45.975Z,55.05
2023-02-07T07:21:12.954Z,53.83
2023-02-07T07:23:40.026Z,51.84
2023-02-07T07:26:07.115Z,50.25
2023-02-07T07:28:34.044Z,50.14
2023-02-07T07:31:08.457Z,50.26
2023-02-07T07:33:36.032Z,50.69
2023-02-07T07:36:04.400Z,48.46
2023-02-07T07:38:32.028Z,49.93
2023-02-07T07:40:59.460Z,50.62
2023-02-07T07:43:27.091Z,51.67
2023-02-07T07:45:57.070Z,53.84
2023-02-07T07:48:25.542Z,54.84
2023-02-07T07:50:53.417Z,54.02
2023-02-07T07:53:20.936Z,52.96
2023-02-07T07:55:52.506Z,51.58
2023-02-07T07:58:20.486Z,50.91
2023-02-07T08:00:48.141Z,51.44
2023-02-07T08:03:16.558Z,50.12
2023-02-07T08:05:44.487Z,48.70
2023-02-07T08:08:12.305Z,48.42
2023-02-07T08:10:40.021Z,47.23
2023-02-07T08:13:07.300Z,46.36
2023-02-07T08:15:34.272Z,43.82
2023-02-07T08:18:01.268Z,44.64
2023-02-07T08:20:28.271Z,46.72
2023-02-07T08:22:55.747Z,48.04
2023-02-07T08:25:22.712Z,49.30
2023-02-07T08:27:49.614Z,47.43
2023-02-07T08:30:19.035Z,48.78
2023-02-07T08:32:45.991Z,49.44
2023-02-07T08:35:13.048Z,48.74
2023-02-07T08:37:40.034Z,46.96
2023-02-07T08:40:08.766Z,48.07
2023-02-07T08:42:35.701Z,48.56
2023-02-07T08:45:04.495Z,46.85
2023-02-07T08:47:32.257Z,46.19
2023-02-07T08:49:59.263Z,43.29
2023-02-07T08:52:28.293Z,43.36
2023-02-07T08:54:55.954Z,43.03
2023-02-07T08:57:25.849Z,44.10
2023-02-07T08:59:53.569Z,44.03
2023-02-07T09:02:20.997Z,44.01
2023-02-07T09:04:48.061Z,42.54
2023-02-07T09:07:15.233Z,42.31
2023-02-07T09:09:42.281Z,42.32
2023-02-07T09:12:10.525Z,44.84
2023-02-07T09:14:39.065Z,45.72
2023-02-07T09:17:07.518Z,46.25
2023-02-07T09:19:35.580Z,46.17
2023-02-07T09:22:03.646Z,46.73
2023-02-07T09:24:30.608Z,47.22
2023-02-07T09:26:57.640Z,48.83
2023-02-07T09:29:24.902Z,49.37
2023-02-07T09:31:52.229Z,48.94
2023-02-07T09:34:19.876Z,48.45
2023-02-07T09:36:46.903Z,47.45
2023-02-07T09:39:13.977Z,48.70
2023-02-07T09:41:56.090Z,49.43
2023-02-07T09:44:55.383Z,50.46
2023-02-07T09:47:24.535Z,47.85
2023-02-07T09:50:14.473Z,45.74
2023-02-07T09:52:47.464Z,45.79
2023-02-07T09:55:46.600Z,46.79
2023-02-07T09:58:30.791Z,45.57
2023-02-07T10:01:07.248Z,44.62
2023-02-07T10:03:42.771Z,41.10
2023-02-07T10:06:19.885Z,39.30
2023-02-07T10:08:53.732Z,40.17
2023-02-07T10:11:29.308Z,40.70
2023-02-07T10:14:07.630Z,43.77
2023-02-07T10:16:41.799Z,47.03
2023-02-07T10:19:09.816Z,47.65
2023-02-07T10:21:48.019Z,48.34
2023-02-07T10:25:09.689Z,49.07
2023-02-07T10:28:01.698Z,49.51
2023-02-07T10:30:32.642Z,50.09
2023-02-07T10:33:11.145Z,50.82
2023-02-07T10:35:39.533Z,51.26
2023-02-07T10:38:17.882Z,51.15
2023-02-07T10:40:52.887Z,48.07
2023-02-07T10:43:32.848Z,44.49
2023-02-07T10:46:06.240Z,42.69
2023-02-07T10:48:34.785Z,41.75
2023-02-07T10:51:04.788Z,40.90
2023-02-07T10:53:55.072Z,41.41
2023-02-07T10:56:28.155Z,40.15
2023-02-07T10:58:59.129Z,42.16
2023-02-07T11:01:29.346Z,41.00
2023-02-07T11:03:57.252Z,40.12
2023-02-07T11:06:35.045Z,40.08
2023-02-07T11:09:37.961Z,39.62
2023-02-07T11:12:28.168Z,39.90
2023-02-07T11:15:02.497Z,41.47
2023-02-07T11:17:29.944Z,41.69
2023-02-07T11:20:00.829Z,40.14
2023-02-07T11:22:28.964Z,40.20
2023-02-07T11:25:05.942Z,40.45
2023-02-07T11:27:42.926Z,40.83
2023-02-07T11:30:17.663Z,40.79
2023-02-07T11:32:56.613Z,40.78
2023-02-07T11:35:23.982Z,41.71
2023-02-07T11:38:06.287Z,41.99
2023-02-07T11:40:44.705Z,41.28
2023-02-07T11:43:17.501Z,42.32
2023-02-07T11:45:58.130Z,42.19
2023-02-07T11:48:36.751Z,41.42
2023-02-07T11:51:06.625Z,42.89
2023-02-07T11:53:53.061Z,41.79
2023-02-07T11:56:31.952Z,41.05
2023-02-07T11:58:59.800Z,41.30
2023-02-07T12:01:30.707Z,42.53
2023-02-07T12:04:03.772Z,42.72
2023-02-07T12:06:41.422Z,42.55
2023-02-07T12:09:31.575Z,40.87
2023-02-07T12:12:03.703Z,41.49
2023-02-07T12:14:49.115Z,42.36
2023-02-07T12:17:37.229Z,40.99
2023-02-07T12:20:23.886Z,41.80
2023-02-07T12:23:11.598Z,40.83
2023-02-07T12:25:52.695Z,40.98
2023-02-07T12:28:25.829Z,41.43
2023-02-07T12:30:56.029Z,40.58
2023-02-07T12:34:03.691Z,41.89
2023-02-07T12:36:36.508Z,43.12
2023-02-07T12:39:13.164Z,43.29
2023-02-07T12:41:49.231Z,42.27
2023-02-07T12:44:28.653Z,41.75
2023-02-07T12:47:06.582Z,41.50
2023-02-07T12:49:54.936Z,43.15
2023-02-07T12:52:34.498Z,44.92
2023-02-07T12:55:13.652Z,45.50
2023-02-07T12:57:47.613Z,46.81
2023-02-07T13:00:35.889Z,47.06
2023-02-07T13:03:15.057Z,47.52
2023-02-07T13:05:52.017Z,46.93
2023-02-07T13:08:21.784Z,46.75
2023-02-07T13:10:54.655Z,48.01
2023-02-07T13:13:24.165Z,49.28
2023-02-07T13:16:00.986Z,49.95
2023-02-07T13:18:41.365Z,49.99
2023-02-07T13:21:29.250Z,50.92
2023-02-07T13:24:02.984Z,50.17
2023-02-07T13:26:33.673Z,51.44
2023-02-07T13:29:08.174Z,52.02
2023-02-07T13:31:40.271Z,52.50
2023-02-07T13:34:19.945Z,56.45
2023-02-07T13:36:52.668Z,58.21
2023-02-07T13:39:22.507Z,59.26
2023-02-07T13:42:02.430Z,60.64
2023-02-07T13:44:57.439Z,61.02
2023-02-07T13:47:53.523Z,61.21
2023-02-07T13:50:20.453Z,62.51
2023-02-07T13:52:59.157Z,62.77
2023-02-07T13:55:38.906Z,62.70
2023-02-07T13:58:53.272Z,63.33
2023-02-07T14:01:23.541Z,63.37
2023-02-07T14:04:12.098Z,62.99
2023-02-07T14:06:54.589Z,62.57
2023-02-07T14:09:21.909Z,61.37
2023-02-07T14:11:58.006Z,62.86
2023-02-07T14:14:27.917Z,63.18
2023-02-07T14:16:58.786Z,64.15
2023-02-07T14:19:40.675Z,63.54
2023-02-07T14:22:29.163Z,64.11
2023-02-07T14:24:59.179Z,64.51
2023-02-07T14:27:37.988Z,64.19
2023-02-07T14:30:22.973Z,65.06
2023-02-07T14:33:14.554Z,65.70
2023-02-07T14:36:29.743Z,66.46
2023-02-07T14:39:19.718Z,66.79
2023-02-07T14:41:49.461Z,67.15
2023-02-07T14:44:39.477Z,66.88
2023-02-07T14:47:15.909Z,67.29
2023-02-07T14:49:46.660Z,66.90
2023-02-07T14:52:35.517Z,68.34
2023-02-07T14:55:07.726Z,68.09
2023-02-07T14:57:43.867Z,67.34
2023-02-07T15:00:28.972Z,67.98
2023-02-07T15:03:06.333Z,68.71
2023-02-07T15:05:39.401Z,67.70
2023-02-07T15:08:14.982Z,68.11
2023-02-07T15:10:53.737Z,68.71
2023-02-07T15:13:41.504Z,68.57
2023-02-07T15:16:18.134Z,69.65
2023-02-07T15:18:52.261Z,70.63
2023-02-07T15:21:39.476Z,69.48
2023-02-07T15:24:14.238Z,70.43
2023-02-07T15:26:41.510Z,70.38
2023-02-07T15:29:25.469Z,70.06
2023-02-07T15:31:54.462Z,69.58
2023-02-07T15:34:31.945Z,70.08
2023-02-07T15:37:24.985Z,70.07
2023-02-07T15:39:57.280Z,69.01
2023-02-07T15:42:24.434Z,69.89
2023-02-07T15:44:56.566Z,71.86
2023-02-07T15:47:29.508Z,71.67
2023-02-07T15:50:20.754Z,72.51
2023-02-07T15:52:56.603Z,72.54
2023-02-07T15:55:26.255Z,72.26
2023-02-07T15:57:53.746Z,72.32
2023-02-07T16:00:36.189Z,72.71
2023-02-07T16:03:08.897Z,71.88
2023-02-07T16:05:38.084Z,70.84
2023-02-07T16:08:40.826Z,71.88
2023-02-07T16:11:22.927Z,71.44
2023-02-07T16:14:15.156Z,73.54
2023-02-07T16:16:47.917Z,73.98
2023-02-07T16:19:14.808Z,73.83
2023-02-07T16:21:43.614Z,73.86
2023-02-07T16:24:21.392Z,73.08
2023-02-07T16:26:49.429Z,73.07
2023-02-07T16:29:19.707Z,72.99
2023-02-07T16:31:47.247Z,73.23
2023-02-07T16:34:16.669Z,73.69
2023-02-07T16:36:44.944Z,73.18
2023-02-07T16:39:11.903Z,73.44
2023-02-07T16:41:41.664Z,73.78
2023-02-07T16:44:18.445Z,72.12
2023-02-07T16:46:45.442Z,71.05
2023-02-07T16:49:17.276Z,69.82
2023-02-07T16:51:44.827Z,70.63
2023-02-07T16:54:12.504Z,73.35
2023-02-07T16:56:39.947Z,75.07
2023-02-07T16:59:09.350Z,74.54
2023-02-07T17:01:36.753Z,73.66
2023-02-07T17:04:03.694Z,73.48
2023-02-07T17:06:32.204Z,71.77
2023-02-07T17:08:59.166Z,72.74
2023-02-07T17:11:26.531Z,74.80
2023-02-07T17:13:54.958Z,71.46
2023-02-07T17:16:22.680Z,74.91
2023-02-07T17:18:50.318Z,77.42
2023-02-07T17:21:18.322Z,77.84
2023-02-07T17:23:47.827Z,78.06
2023-02-07T17:26:27.525Z,78.89
2023-02-07T17:28:55.336Z,76.11
2023-02-07T17:31:23.457Z,78.01
2023-02-07T17:33:53.594Z,80.33
2023-02-07T17:36:20.812Z,81.80
2023-02-07T17:38:47.841Z,81.85
2023-02-07T17:41:15.482Z,83.05
2023-02-07T17:43:42.497Z,82.11
2023-02-07T17:46:15.538Z,82.65
2023-02-07T17:48:42.449Z,81.30
2023-02-07T17:51:09.429Z,80.50
2023-02-07T17:53:36.290Z,77.92
2023-02-07T17:56:03.416Z,76.41
2023-02-07T17:58:30.502Z,76.45
2023-02-07T18:00:57.501Z,78.46
2023-02-07T18:03:24.458Z,78.02
2023-02-07T18:05:51.725Z,80.09
2023-02-07T18:08:19.073Z,80.01
2023-02-07T18:10:46.157Z,80.65
2023-02-07T18:13:13.127Z,80.34
2023-02-07T18:15:40.304Z,81.72
2023-02-07T18:18:07.365Z,82.61
2023-02-07T18:20:34.802Z,81.28
2023-02-07T18:23:01.905Z,81.83
2023-02-07T18:25:30.072Z,83.20
2023-02-07T18:27:58.460Z,81.91
2023-02-07T18:30:26.717Z,82.41
2023-02-07T18:32:54.104Z,81.14
2023-02-07T18:35:21.516Z,83.35
2023-02-07T18:37:48.524Z,84.41
2023-02-07T18:40:18.535Z,85.04
2023-02-07T18:42:46.322Z,84.73
2023-02-07T18:45:14.573Z,85.78
2023-02-07T18:47:43.002Z,85.97
2023-02-07T18:50:12.156Z,85.33
2023-02-07T18:52:39.621Z,85.58
2023-02-07T18:55:07.143Z,84.93
2023-02-07T18:57:34.353Z,84.82
2023-02-07T19:00:01.341Z,84.65
2023-02-07T19:02:28.488Z,84.69
2023-02-07T19:04:55.389Z,84.02
2023-02-07T19:07:22.362Z,83.38
2023-02-07T19:09:49.272Z,83.89
2023-02-07T19:12:16.241Z,84.21
2023-02-07T19:14:43.310Z,84.40
2023-02-07T19:17:10.372Z,83.83
2023-02-07T19:19:37.239Z,82.44
2023-02-07T19:22:04.354Z,81.89
2023-02-07T19:24:31.410Z,81.56
2023-02-07T19:26:58.883Z,82.79
2023-02-07T19:29:30.881Z,82.46
2023-02-07T19:32:03.712Z,82.89
2023-02-07T19:34:31.258Z,82.42
2023-02-07T19:36:58.484Z,83.24
2023-02-07T19:39:26.097Z,83.11
2023-02-07T19:41:53.086Z,81.57
2023-02-07T19:44:20.369Z,78.31
2023-02-07T19:46:47.366Z,79.10
2023-02-07T19:49:15.109Z,79.65
2023-02-07T19:51:42.595Z,79.18
2023-02-07T19:54:10.153Z,77.30
2023-02-07T19:56:37.755Z,77.91
2023-02-07T19:59:06.581Z,76.49
2023-02-07T20:01:35.468Z,73.86
2023-02-07T20:04:02.618Z,72.17
2023-02-07T20:06:33.121Z,72.92
2023-02-07T20:09:02.083Z,71.68
2023-02-07T20:11:29.672Z,69.47
2023-02-07T20:14:02.888Z,68.37
2023-02-07T20:16:35.493Z,69.63
2023-02-07T20:19:05.905Z,74.91
2023-02-07T20:21:33.944Z,73.57
2023-02-07T20:24:01.261Z,70.38
2023-02-07T20:26:31.852Z,70.44
2023-02-07T20:29:04.113Z,70.66
2023-02-07T20:31:32.166Z,74.83
2023-02-07T20:34:00.168Z,77.10
2023-02-07T20:36:27.483Z,81.58
2023-02-07T20:38:56.894Z,82.57
2023-02-07T20:41:36.248Z,82.72
2023-02-07T20:44:07.398Z,81.20
2023-02-07T20:46:36.414Z,79.77
2023-02-07T20:49:11.057Z,79.50
2023-02-07T20:51:38.307Z,81.27
2023-02-07T20:54:07.287Z,78.33
2023-02-07T20:56:34.698Z,80.06
2023-02-07T20:59:01.648Z,77.32
2023-02-07T21:01:30.939Z,77.61
2023-02-07T21:03:59.953Z,78.78
2023-02-07T21:06:27.994Z,78.46
2023-02-07T21:09:03.290Z,80.67
2023-02-07T21:11:33.933Z,79.67
2023-02-07T21:14:02.016Z,81.08
2023-02-07T21:16:30.991Z,80.30
2023-02-07T21:18:58.782Z,79.10
2023-02-07T21:21:25.840Z,79.15
2023-02-07T21:23:52.853Z,80.21
2023-02-07T21:26:19.837Z,79.30
2023-02-07T21:28:47.240Z,80.98
2023-02-07T21:31:21.797Z,82.67
2023-02-07T21:33:50.062Z,83.15
2023-02-07T21:36:34.513Z,81.13
2023-02-07T21:39:07.100Z,82.64
2023-02-07T21:41:34.532Z,84.29
2023-02-07T21:44:01.888Z,83.37
2023-02-07T21:46:34.476Z,80.76
2023-02-07T21:49:07.482Z,79.51
2023-02-07T21:51:36.116Z,81.02
2023-02-07T21:54:05.065Z,81.00
2023-02-07T21:56:33.999Z,82.51
2023-02-07T21:59:04.584Z,81.76
2023-02-07T22:01:32.824Z,81.87
2023-02-07T22:04:02.083Z,80.27
2023-02-07T22:06:30.719Z,79.42
2023-02-07T22:09:02.346Z,77.40
2023-02-07T22:11:31.542Z,74.97
2023-02-07T22:13:58.985Z,77.83
2023-02-07T22:16:28.456Z,77.08
2023-02-07T22:18:57.187Z,74.80
2023-02-07T22:21:26.877Z,73.52
2023-02-07T22:23:54.570Z,72.37
2023-02-07T22:26:21.940Z,74.54
2023-02-07T22:28:49.115Z,74.60
2023-02-07T22:31:19.932Z,73.88
2023-02-07T22:33:47.828Z,76.63
2023-02-07T22:36:23.762Z,75.03
2023-02-07T22:38:50.998Z,75.28
2023-02-07T22:41:19.036Z,73.38
2023-02-07T22:43:46.122Z,76.18
2023-02-07T22:46:16.763Z,77.71
2023-02-07T22:48:44.162Z,77.01
2023-02-07T22:51:20.525Z,74.56
2023-02-07T22:53:48.029Z,76.92
2023-02-07T22:56:15.073Z,78.63
2023-02-07T22:58:42.460Z,79.87
2023-02-07T23:01:19.779Z,80.96
2023-02-07T23:03:46.879Z,79.48
2023-02-07T23:06:14.206Z,78.71
2023-02-07T23:08:41.232Z,79.51
2023-02-07T23:11:09.498Z,80.10
2023-02-07T23:13:36.486Z,81.80
2023-02-07T23:16:03.897Z,83.18
2023-02-07T23:18:31.339Z,82.31
2023-02-07T23:20:58.265Z,83.52
2023-02-07T23:23:25.482Z,82.58
2023-02-07T23:25:52.403Z,81.28
2023-02-07T23:28:19.429Z,78.70
2023-02-07T23:30:46.502Z,78.91
2023-02-07T23:33:13.456Z,81.05
2023-02-07T23:35:40.401Z,83.15
2023-02-07T23:38:07.274Z,81.90
2023-02-07T23:40:34.126Z,81.94
2023-02-07T23:43:01.152Z,82.23
2023-02-07T23:45:28.031Z,83.46
2023-02-07T23:47:55.026Z,81.82
2023-02-07T23:50:22.660Z,77.60
2023-02-07T23:52:49.653Z,79.78
2023-02-07T23:55:16.595Z,80.78
2023-02-07T23:57:43.455Z,80.40
